sensor_id;sensor_type;location;lat;lon;timestamp;temperature;humidity
36652;DHT22;53334;51.976;20.144;2023-12-20T00:01:38;25.70;44.70
36652;DHT22;53334;51.976;20.144;2023-12-20T00:04:11;25.70;44.60
36652;DHT22;53334;51.976;20.144;2023-12-20T00:06:46;25.70;44.60
36652;DHT22;53334;51.976;20.144;2023-12-20T00:09:19;25.70;44.50
36652;DHT22;53334;51.976;20.144;2023-12-20T00:11:52;25.70;44.50
36652;DHT22;53334;51.976;20.144;2023-12-20T00:14:25;25.70;44.50
36652;DHT22;53334;51.976;20.144;2023-12-20T00:16:59;25.70;44.50
36652;DHT22;53334;51.976;20.144;2023-12-20T00:19:32;25.70;44.40
36652;DHT22;53334;51.976;20.144;2023-12-20T00:22:06;25.70;44.30
36652;DHT22;53334;51.976;20.144;2023-12-20T00:24:40;25.70;44.20
36652;DHT22;53334;51.976;20.144;2023-12-20T00:27:13;25.70;44.10
36652;DHT22;53334;51.976;20.144;2023-12-20T00:29:46;25.70;44.10
36652;DHT22;53334;51.976;20.144;2023-12-20T00:32:21;25.70;44.00
36652;DHT22;53334;51.976;20.144;2023-12-20T00:34:55;25.70;44.00
36652;DHT22;53334;51.976;20.144;2023-12-20T00:37:29;25.60;44.00
36652;DHT22;53334;51.976;20.144;2023-12-20T00:40:03;25.60;43.90
36652;DHT22;53334;51.976;20.144;2023-12-20T00:42:37;25.70;44.00
36652;DHT22;53334;51.976;20.144;2023-12-20T00:45:10;25.60;43.90
36652;DHT22;53334;51.976;20.144;2023-12-20T00:47:43;25.60;43.90
36652;DHT22;53334;51.976;20.144;2023-12-20T00:50:17;25.60;43.80
36652;DHT22;53334;51.976;20.144;2023-12-20T00:52:52;25.60;43.60
36652;DHT22;53334;51.976;20.144;2023-12-20T00:55:26;25.60;43.60
36652;DHT22;53334;51.976;20.144;2023-12-20T00:57:59;25.60;44.30
36652;DHT22;53334;51.976;20.144;2023-12-20T01:00:33;25.70;44.80
36652;DHT22;53334;51.976;20.144;2023-12-20T01:03:06;25.70;44.70
36652;DHT22;53334;51.976;20.144;2023-12-20T01:05:39;25.70;44.70
36652;DHT22;53334;51.976;20.144;2023-12-20T01:08:14;25.70;44.70
36652;DHT22;53334;51.976;20.144;2023-12-20T01:10:47;25.70;44.80
36652;DHT22;53334;51.976;20.144;2023-12-20T01:13:20;25.70;44.90
36652;DHT22;53334;51.976;20.144;2023-12-20T01:15:54;25.70;44.90
36652;DHT22;53334;51.976;20.144;2023-12-20T01:18:27;25.70;44.90
36652;DHT22;53334;51.976;20.144;2023-12-20T01:21:01;25.70;45.00
36652;DHT22;53334;51.976;20.144;2023-12-20T01:23:37;25.80;45.20
36652;DHT22;53334;51.976;20.144;2023-12-20T01:26:10;25.70;45.10
36652;DHT22;53334;51.976;20.144;2023-12-20T01:28:44;25.80;45.20
36652;DHT22;53334;51.976;20.144;2023-12-20T01:31:17;25.70;45.20
36652;DHT22;53334;51.976;20.144;2023-12-20T01:33:50;25.80;45.40
36652;DHT22;53334;51.976;20.144;2023-12-20T01:36:24;25.80;45.50
36652;DHT22;53334;51.976;20.144;2023-12-20T01:38:58;25.80;45.60
36652;DHT22;53334;51.976;20.144;2023-12-20T01:41:31;25.80;45.80
36652;DHT22;53334;51.976;20.144;2023-12-20T01:44:05;25.80;45.80
36652;DHT22;53334;51.976;20.144;2023-12-20T01:46:38;25.80;45.80
36652;DHT22;53334;51.976;20.144;2023-12-20T01:49:11;25.80;45.90
36652;DHT22;53334;51.976;20.144;2023-12-20T01:51:45;25.80;46.00
36652;DHT22;53334;51.976;20.144;2023-12-20T01:54:21;25.80;46.10
36652;DHT22;53334;51.976;20.144;2023-12-20T01:56:54;25.80;46.30
36652;DHT22;53334;51.976;20.144;2023-12-20T01:59:28;25.80;46.30
36652;DHT22;53334;51.976;20.144;2023-12-20T02:02:03;25.80;46.30
36652;DHT22;53334;51.976;20.144;2023-12-20T02:04:36;25.80;46.40
36652;DHT22;53334;51.976;20.144;2023-12-20T02:07:10;25.80;46.30
36652;DHT22;53334;51.976;20.144;2023-12-20T02:09:46;25.80;46.40
36652;DHT22;53334;51.976;20.144;2023-12-20T02:12:20;25.80;46.30
36652;DHT22;53334;51.976;20.144;2023-12-20T02:14:53;25.80;46.40
36652;DHT22;53334;51.976;20.144;2023-12-20T02:17:27;25.80;46.30
36652;DHT22;53334;51.976;20.144;2023-12-20T02:20:01;25.80;46.40
36652;DHT22;53334;51.976;20.144;2023-12-20T02:22:36;25.80;46.40
36652;DHT22;53334;51.976;20.144;2023-12-20T02:25:09;25.80;46.40
36652;DHT22;53334;51.976;20.144;2023-12-20T02:27:42;25.80;46.30
36652;DHT22;53334;51.976;20.144;2023-12-20T02:30:16;25.80;46.40
36652;DHT22;53334;51.976;20.144;2023-12-20T02:32:50;25.80;46.40
36652;DHT22;53334;51.976;20.144;2023-12-20T02:35:24;25.80;46.30
36652;DHT22;53334;51.976;20.144;2023-12-20T02:37:59;25.80;46.30
36652;DHT22;53334;51.976;20.144;2023-12-20T02:40:32;25.80;46.30
36652;DHT22;53334;51.976;20.144;2023-12-20T02:43:05;25.80;46.30
36652;DHT22;53334;51.976;20.144;2023-12-20T02:45:38;25.80;46.30
36652;DHT22;53334;51.976;20.144;2023-12-20T02:48:11;25.80;46.30
36652;DHT22;53334;51.976;20.144;2023-12-20T02:50:46;25.80;46.30
36652;DHT22;53334;51.976;20.144;2023-12-20T02:53:21;25.80;46.40
36652;DHT22;53334;51.976;20.144;2023-12-20T02:55:54;25.80;47.00
36652;DHT22;53334;51.976;20.144;2023-12-20T02:58:27;25.80;46.40
36652;DHT22;53334;51.976;20.144;2023-12-20T03:01:00;25.80;46.50
36652;DHT22;53334;51.976;20.144;2023-12-20T03:03:34;25.80;46.50
36652;DHT22;53334;51.976;20.144;2023-12-20T03:06:07;25.80;46.40
36652;DHT22;53334;51.976;20.144;2023-12-20T03:08:42;25.80;46.40
36652;DHT22;53334;51.976;20.144;2023-12-20T03:11:15;25.80;46.40
36652;DHT22;53334;51.976;20.144;2023-12-20T03:13:48;25.80;46.30
36652;DHT22;53334;51.976;20.144;2023-12-20T03:16:21;25.80;46.30
36652;DHT22;53334;51.976;20.144;2023-12-20T03:18:55;25.80;46.30
36652;DHT22;53334;51.976;20.144;2023-12-20T03:21:28;25.80;46.50
36652;DHT22;53334;51.976;20.144;2023-12-20T03:24:03;25.80;46.30
36652;DHT22;53334;51.976;20.144;2023-12-20T03:26:36;25.80;46.30
36652;DHT22;53334;51.976;20.144;2023-12-20T03:29:10;25.80;46.30
36652;DHT22;53334;51.976;20.144;2023-12-20T03:31:43;25.80;46.30
36652;DHT22;53334;51.976;20.144;2023-12-20T03:34:16;25.80;46.40
36652;DHT22;53334;51.976;20.144;2023-12-20T03:36:49;25.80;46.40
36652;DHT22;53334;51.976;20.144;2023-12-20T03:39:24;25.80;47.00
36652;DHT22;53334;51.976;20.144;2023-12-20T03:41:57;25.80;47.00
36652;DHT22;53334;51.976;20.144;2023-12-20T03:44:30;25.80;46.40
36652;DHT22;53334;51.976;20.144;2023-12-20T03:47:04;25.80;47.00
36652;DHT22;53334;51.976;20.144;2023-12-20T03:49:37;25.80;46.50
36652;DHT22;53334;51.976;20.144;2023-12-20T03:52:10;25.80;46.50
36652;DHT22;53334;51.976;20.144;2023-12-20T03:54:45;25.80;46.50
36652;DHT22;53334;51.976;20.144;2023-12-20T03:57:18;25.80;46.50
36652;DHT22;53334;51.976;20.144;2023-12-20T03:59:51;25.80;46.50
36652;DHT22;53334;51.976;20.144;2023-12-20T04:02:25;25.80;46.40
36652;DHT22;53334;51.976;20.144;2023-12-20T04:04:58;25.80;46.40
36652;DHT22;53334;51.976;20.144;2023-12-20T04:07:31;25.80;46.50
36652;DHT22;53334;51.976;20.144;2023-12-20T04:10:07;25.80;46.40
36652;DHT22;53334;51.976;20.144;2023-12-20T04:12:40;25.80;46.40
36652;DHT22;53334;51.976;20.144;2023-12-20T04:15:14;25.80;46.40
36652;DHT22;53334;51.976;20.144;2023-12-20T04:17:47;25.80;46.40
36652;DHT22;53334;51.976;20.144;2023-12-20T04:20:21;25.80;46.40
36652;DHT22;53334;51.976;20.144;2023-12-20T04:22:54;25.80;46.40
36652;DHT22;53334;51.976;20.144;2023-12-20T04:25:29;25.80;46.30
36652;DHT22;53334;51.976;20.144;2023-12-20T04:28:02;25.80;46.30
36652;DHT22;53334;51.976;20.144;2023-12-20T04:30:35;25.80;46.30
36652;DHT22;53334;51.976;20.144;2023-12-20T04:33:09;25.80;46.30
36652;DHT22;53334;51.976;20.144;2023-12-20T04:35:42;25.80;46.40
36652;DHT22;53334;51.976;20.144;2023-12-20T04:38:17;25.80;46.40
36652;DHT22;53334;51.976;20.144;2023-12-20T04:40:52;25.80;46.40
36652;DHT22;53334;51.976;20.144;2023-12-20T04:43:25;25.80;46.50
36652;DHT22;53334;51.976;20.144;2023-12-20T04:45:58;25.80;47.00
36652;DHT22;53334;51.976;20.144;2023-12-20T04:48:31;25.80;46.40
36652;DHT22;53334;51.976;20.144;2023-12-20T04:51:05;25.80;46.50
36652;DHT22;53334;51.976;20.144;2023-12-20T04:53:38;25.80;46.40
36652;DHT22;53334;51.976;20.144;2023-12-20T04:56:13;25.80;46.50
36652;DHT22;53334;51.976;20.144;2023-12-20T04:58:46;25.80;46.40
36652;DHT22;53334;51.976;20.144;2023-12-20T05:01:20;25.80;47.10
36652;DHT22;53334;51.976;20.144;2023-12-20T05:03:53;25.80;46.60
36652;DHT22;53334;51.976;20.144;2023-12-20T05:06:27;25.80;46.70
36652;DHT22;53334;51.976;20.144;2023-12-20T05:09:00;25.80;46.70
36652;DHT22;53334;51.976;20.144;2023-12-20T05:11:34;25.80;46.70
36652;DHT22;53334;51.976;20.144;2023-12-20T05:14:08;25.80;46.80
36652;DHT22;53334;51.976;20.144;2023-12-20T05:16:41;25.80;46.80
36652;DHT22;53334;51.976;20.144;2023-12-20T05:19:15;25.80;47.10
36652;DHT22;53334;51.976;20.144;2023-12-20T05:21:48;25.80;46.90
36652;DHT22;53334;51.976;20.144;2023-12-20T05:24:21;25.80;46.80
36652;DHT22;53334;51.976;20.144;2023-12-20T05:26:56;25.80;46.80
36652;DHT22;53334;51.976;20.144;2023-12-20T05:29:29;25.80;46.70
36652;DHT22;53334;51.976;20.144;2023-12-20T05:32:02;25.80;46.70
36652;DHT22;53334;51.976;20.144;2023-12-20T05:34:36;25.80;46.60
36652;DHT22;53334;51.976;20.144;2023-12-20T05:37:09;25.80;46.60
36652;DHT22;53334;51.976;20.144;2023-12-20T05:39:43;25.80;46.60
36652;DHT22;53334;51.976;20.144;2023-12-20T05:42:18;25.80;46.60
36652;DHT22;53334;51.976;20.144;2023-12-20T05:44:51;25.80;46.60
36652;DHT22;53334;51.976;20.144;2023-12-20T05:47:27;25.80;46.50
36652;DHT22;53334;51.976;20.144;2023-12-20T05:50:00;25.80;46.50
36652;DHT22;53334;51.976;20.144;2023-12-20T05:52:33;25.80;46.50
36652;DHT22;53334;51.976;20.144;2023-12-20T05:55:06;25.80;46.50
36652;DHT22;53334;51.976;20.144;2023-12-20T05:57:41;25.80;46.40
36652;DHT22;53334;51.976;20.144;2023-12-20T06:00:16;25.80;46.40
36652;DHT22;53334;51.976;20.144;2023-12-20T06:02:50;25.80;46.40
36652;DHT22;53334;51.976;20.144;2023-12-20T06:05:23;25.80;46.40
36652;DHT22;53334;51.976;20.144;2023-12-20T06:07:56;25.80;46.40
36652;DHT22;53334;51.976;20.144;2023-12-20T06:10:33;25.80;46.40
36652;DHT22;53334;51.976;20.144;2023-12-20T06:13:07;25.80;46.40
36652;DHT22;53334;51.976;20.144;2023-12-20T06:15:42;25.80;46.30
36652;DHT22;53334;51.976;20.144;2023-12-20T06:18:15;25.80;46.40
36652;DHT22;53334;51.976;20.144;2023-12-20T06:20:48;25.80;46.40
36652;DHT22;53334;51.976;20.144;2023-12-20T06:23:21;25.80;46.40
36652;DHT22;53334;51.976;20.144;2023-12-20T06:25:55;25.80;46.50
36652;DHT22;53334;51.976;20.144;2023-12-20T06:28:29;25.80;46.50
36652;DHT22;53334;51.976;20.144;2023-12-20T06:31:03;25.80;46.40
36652;DHT22;53334;51.976;20.144;2023-12-20T06:33:36;25.80;46.40
36652;DHT22;53334;51.976;20.144;2023-12-20T06:36:11;25.80;46.50
36652;DHT22;53334;51.976;20.144;2023-12-20T06:38:45;25.80;46.50
36652;DHT22;53334;51.976;20.144;2023-12-20T06:41:19;25.80;46.70
36652;DHT22;53334;51.976;20.144;2023-12-20T06:43:53;25.80;46.90
36652;DHT22;53334;51.976;20.144;2023-12-20T06:46:27;25.80;46.80
36652;DHT22;53334;51.976;20.144;2023-12-20T06:49:00;25.80;46.70
36652;DHT22;53334;51.976;20.144;2023-12-20T06:51:33;25.80;46.60
36652;DHT22;53334;51.976;20.144;2023-12-20T06:54:06;25.80;46.50
36652;DHT22;53334;51.976;20.144;2023-12-20T06:56:40;25.80;46.40
36652;DHT22;53334;51.976;20.144;2023-12-20T06:59:14;25.80;46.40
36652;DHT22;53334;51.976;20.144;2023-12-20T07:01:48;25.80;46.30
36652;DHT22;53334;51.976;20.144;2023-12-20T07:04:22;25.80;46.20
36652;DHT22;53334;51.976;20.144;2023-12-20T07:06:55;25.80;46.20
36652;DHT22;53334;51.976;20.144;2023-12-20T07:09:32;25.80;46.10
36652;DHT22;53334;51.976;20.144;2023-12-20T07:12:05;25.80;46.10
36652;DHT22;53334;51.976;20.144;2023-12-20T07:14:40;25.80;46.00
36652;DHT22;53334;51.976;20.144;2023-12-20T07:17:13;25.80;45.90
36652;DHT22;53334;51.976;20.144;2023-12-20T07:19:47;25.80;45.90
36652;DHT22;53334;51.976;20.144;2023-12-20T07:22:20;25.80;45.90
36652;DHT22;53334;51.976;20.144;2023-12-20T07:24:54;25.80;45.80
36652;DHT22;53334;51.976;20.144;2023-12-20T07:27:27;25.80;45.80
36652;DHT22;53334;51.976;20.144;2023-12-20T07:30:02;25.80;45.70
36652;DHT22;53334;51.976;20.144;2023-12-20T07:32:35;25.80;45.70
36652;DHT22;53334;51.976;20.144;2023-12-20T07:35:09;25.80;46.30
36652;DHT22;53334;51.976;20.144;2023-12-20T07:37:42;25.80;46.60
36652;DHT22;53334;51.976;20.144;2023-12-20T07:40:16;25.80;46.30
36652;DHT22;53334;51.976;20.144;2023-12-20T07:42:49;25.80;46.10
36652;DHT22;53334;51.976;20.144;2023-12-20T07:45:24;25.80;46.10
36652;DHT22;53334;51.976;20.144;2023-12-20T07:47:57;25.80;46.20
36652;DHT22;53334;51.976;20.144;2023-12-20T07:50:30;25.80;46.40
36652;DHT22;53334;51.976;20.144;2023-12-20T07:53:05;25.80;46.50
36652;DHT22;53334;51.976;20.144;2023-12-20T07:55:39;25.80;46.90
36652;DHT22;53334;51.976;20.144;2023-12-20T07:58:12;25.80;47.40
36652;DHT22;53334;51.976;20.144;2023-12-20T08:00:47;25.80;47.80
36652;DHT22;53334;51.976;20.144;2023-12-20T08:03:20;25.80;47.80
36652;DHT22;53334;51.976;20.144;2023-12-20T08:05:53;25.90;48.20
36652;DHT22;53334;51.976;20.144;2023-12-20T08:08:26;25.90;48.30
36652;DHT22;53334;51.976;20.144;2023-12-20T08:11:00;25.80;48.40
36652;DHT22;53334;51.976;20.144;2023-12-20T08:13:55;25.90;48.70
36652;DHT22;53334;51.976;20.144;2023-12-20T08:16:51;25.90;48.70
36652;DHT22;53334;51.976;20.144;2023-12-20T08:19:24;25.90;48.60
36652;DHT22;53334;51.976;20.144;2023-12-20T08:21:58;25.90;48.40
36652;DHT22;53334;51.976;20.144;2023-12-20T08:24:31;25.80;48.20
36652;DHT22;53334;51.976;20.144;2023-12-20T08:27:04;25.90;48.20
36652;DHT22;53334;51.976;20.144;2023-12-20T08:29:37;25.90;48.30
36652;DHT22;53334;51.976;20.144;2023-12-20T08:32:12;25.90;48.40
36652;DHT22;53334;51.976;20.144;2023-12-20T08:34:45;25.90;48.40
36652;DHT22;53334;51.976;20.144;2023-12-20T08:37:19;25.90;48.50
36652;DHT22;53334;51.976;20.144;2023-12-20T08:39:55;25.90;48.30
36652;DHT22;53334;51.976;20.144;2023-12-20T08:42:28;25.90;48.30
36652;DHT22;53334;51.976;20.144;2023-12-20T08:45:03;25.90;48.90
36652;DHT22;53334;51.976;20.144;2023-12-20T08:47:38;25.90;48.20
36652;DHT22;53334;51.976;20.144;2023-12-20T08:50:13;25.90;48.30
36652;DHT22;53334;51.976;20.144;2023-12-20T08:52:47;25.90;48.80
36652;DHT22;53334;51.976;20.144;2023-12-20T08:55:20;25.90;48.80
36652;DHT22;53334;51.976;20.144;2023-12-20T08:57:53;25.90;48.20
36652;DHT22;53334;51.976;20.144;2023-12-20T09:00:27;25.90;48.20
36652;DHT22;53334;51.976;20.144;2023-12-20T09:03:03;25.90;48.20
36652;DHT22;53334;51.976;20.144;2023-12-20T09:05:36;25.90;48.30
36652;DHT22;53334;51.976;20.144;2023-12-20T09:08:09;25.90;48.20
36652;DHT22;53334;51.976;20.144;2023-12-20T09:10:43;25.90;48.20
36652;DHT22;53334;51.976;20.144;2023-12-20T09:13:16;25.90;48.20
36652;DHT22;53334;51.976;20.144;2023-12-20T09:15:49;25.90;48.20
36652;DHT22;53334;51.976;20.144;2023-12-20T09:18:24;25.90;48.20
36652;DHT22;53334;51.976;20.144;2023-12-20T09:20:57;25.90;48.30
36652;DHT22;53334;51.976;20.144;2023-12-20T09:23:30;25.90;48.30
36652;DHT22;53334;51.976;20.144;2023-12-20T09:26:04;25.90;48.20
36652;DHT22;53334;51.976;20.144;2023-12-20T09:28:37;25.90;48.20
36652;DHT22;53334;51.976;20.144;2023-12-20T09:31:12;25.90;48.20
36652;DHT22;53334;51.976;20.144;2023-12-20T09:33:47;25.90;48.30
36652;DHT22;53334;51.976;20.144;2023-12-20T09:36:20;25.90;48.00
36652;DHT22;53334;51.976;20.144;2023-12-20T09:38:53;25.90;47.90
36652;DHT22;53334;51.976;20.144;2023-12-20T09:41:28;25.90;47.90
36652;DHT22;53334;51.976;20.144;2023-12-20T09:44:02;25.90;48.50
36652;DHT22;53334;51.976;20.144;2023-12-20T09:46:37;25.90;48.20
36652;DHT22;53334;51.976;20.144;2023-12-20T09:49:13;25.90;48.40
36652;DHT22;53334;51.976;20.144;2023-12-20T09:51:47;25.90;48.70
36652;DHT22;53334;51.976;20.144;2023-12-20T09:54:21;26.00;48.90
36652;DHT22;53334;51.976;20.144;2023-12-20T09:56:55;26.00;49.00
36652;DHT22;53334;51.976;20.144;2023-12-20T09:59:28;26.00;49.10
36652;DHT22;53334;51.976;20.144;2023-12-20T10:02:02;26.00;49.40
36652;DHT22;53334;51.976;20.144;2023-12-20T10:04:41;26.00;49.60
36652;DHT22;53334;51.976;20.144;2023-12-20T10:07:19;26.00;49.60
36652;DHT22;53334;51.976;20.144;2023-12-20T10:09:54;26.00;49.60
36652;DHT22;53334;51.976;20.144;2023-12-20T10:12:28;26.00;49.60
36652;DHT22;53334;51.976;20.144;2023-12-20T10:15:02;26.00;49.70
36652;DHT22;53334;51.976;20.144;2023-12-20T10:17:35;26.00;49.60
36652;DHT22;53334;51.976;20.144;2023-12-20T10:20:11;26.10;49.60
36652;DHT22;53334;51.976;20.144;2023-12-20T10:22:44;26.10;49.40
36652;DHT22;53334;51.976;20.144;2023-12-20T10:25:18;26.00;49.20
36652;DHT22;53334;51.976;20.144;2023-12-20T10:28:08;26.00;49.10
36652;DHT22;53334;51.976;20.144;2023-12-20T10:30:42;26.00;48.90
36652;DHT22;53334;51.976;20.144;2023-12-20T10:33:24;26.00;48.80
36652;DHT22;53334;51.976;20.144;2023-12-20T10:36:00;26.00;48.50
36652;DHT22;53334;51.976;20.144;2023-12-20T10:38:34;26.00;48.40
36652;DHT22;53334;51.976;20.144;2023-12-20T10:41:10;26.00;48.30
36652;DHT22;53334;51.976;20.144;2023-12-20T10:43:44;26.00;48.30
36652;DHT22;53334;51.976;20.144;2023-12-20T10:46:18;26.00;48.30
36652;DHT22;53334;51.976;20.144;2023-12-20T10:48:53;26.00;48.30
36652;DHT22;53334;51.976;20.144;2023-12-20T10:51:28;26.00;48.40
36652;DHT22;53334;51.976;20.144;2023-12-20T10:54:02;26.00;48.30
36652;DHT22;53334;51.976;20.144;2023-12-20T10:56:37;26.00;48.30
36652;DHT22;53334;51.976;20.144;2023-12-20T10:59:11;26.00;48.30
36652;DHT22;53334;51.976;20.144;2023-12-20T11:01:44;26.00;48.20
36652;DHT22;53334;51.976;20.144;2023-12-20T11:04:22;26.00;48.20
36652;DHT22;53334;51.976;20.144;2023-12-20T11:07:04;25.90;48.00
36652;DHT22;53334;51.976;20.144;2023-12-20T11:09:45;25.90;48.00
36652;DHT22;53334;51.976;20.144;2023-12-20T11:12:26;26.00;48.10
36652;DHT22;53334;51.976;20.144;2023-12-20T11:15:03;25.90;47.80
36652;DHT22;53334;51.976;20.144;2023-12-20T11:17:39;25.90;48.00
36652;DHT22;53334;51.976;20.144;2023-12-20T11:20:12;25.90;47.90
36652;DHT22;53334;51.976;20.144;2023-12-20T11:22:56;26.00;48.00
36652;DHT22;53334;51.976;20.144;2023-12-20T11:25:29;26.00;47.80
36652;DHT22;53334;51.976;20.144;2023-12-20T11:28:09;25.90;48.10
36652;DHT22;53334;51.976;20.144;2023-12-20T11:30:47;26.00;48.10
36652;DHT22;53334;51.976;20.144;2023-12-20T11:33:22;25.90;48.10
36652;DHT22;53334;51.976;20.144;2023-12-20T11:35:59;26.00;48.10
36652;DHT22;53334;51.976;20.144;2023-12-20T11:38:37;26.00;48.00
36652;DHT22;53334;51.976;20.144;2023-12-20T11:41:11;25.90;47.90
36652;DHT22;53334;51.976;20.144;2023-12-20T11:43:44;25.90;47.90
36652;DHT22;53334;51.976;20.144;2023-12-20T11:46:18;25.90;47.80
36652;DHT22;53334;51.976;20.144;2023-12-20T11:48:51;25.90;47.80
36652;DHT22;53334;51.976;20.144;2023-12-20T11:51:25;26.00;48.40
36652;DHT22;53334;51.976;20.144;2023-12-20T11:54:01;26.00;47.70
36652;DHT22;53334;51.976;20.144;2023-12-20T11:56:35;26.00;47.70
36652;DHT22;53334;51.976;20.144;2023-12-20T11:59:09;26.00;47.60
36652;DHT22;53334;51.976;20.144;2023-12-20T12:01:54;26.00;47.60
36652;DHT22;53334;51.976;20.144;2023-12-20T12:04:32;26.00;47.70
36652;DHT22;53334;51.976;20.144;2023-12-20T12:07:06;26.00;47.70
36652;DHT22;53334;51.976;20.144;2023-12-20T12:09:40;26.00;48.20
36652;DHT22;53334;51.976;20.144;2023-12-20T12:12:14;26.00;48.60
36652;DHT22;53334;51.976;20.144;2023-12-20T12:14:49;26.00;48.90
36652;DHT22;53334;51.976;20.144;2023-12-20T12:17:23;26.00;48.90
36652;DHT22;53334;51.976;20.144;2023-12-20T12:20:02;26.00;48.80
36652;DHT22;53334;51.976;20.144;2023-12-20T12:22:36;26.00;49.10
36652;DHT22;53334;51.976;20.144;2023-12-20T12:25:12;26.00;49.10
36652;DHT22;53334;51.976;20.144;2023-12-20T12:27:46;26.00;49.50
36652;DHT22;53334;51.976;20.144;2023-12-20T12:30:20;26.10;49.60
36652;DHT22;53334;51.976;20.144;2023-12-20T12:32:54;26.10;49.80
36652;DHT22;53334;51.976;20.144;2023-12-20T12:35:28;26.10;49.80
36652;DHT22;53334;51.976;20.144;2023-12-20T12:38:01;26.10;50.30
36652;DHT22;53334;51.976;20.144;2023-12-20T12:40:36;26.10;50.20
36652;DHT22;53334;51.976;20.144;2023-12-20T12:43:09;26.10;50.10
36652;DHT22;53334;51.976;20.144;2023-12-20T12:45:43;26.10;50.40
36652;DHT22;53334;51.976;20.144;2023-12-20T12:48:16;26.10;49.70
36652;DHT22;53334;51.976;20.144;2023-12-20T12:50:49;26.10;49.50
36652;DHT22;53334;51.976;20.144;2023-12-20T12:53:24;26.10;49.40
36652;DHT22;53334;51.976;20.144;2023-12-20T12:55:58;26.10;49.00
36652;DHT22;53334;51.976;20.144;2023-12-20T12:58:32;26.10;48.80
36652;DHT22;53334;51.976;20.144;2023-12-20T13:01:05;26.10;48.40
36652;DHT22;53334;51.976;20.144;2023-12-20T13:03:38;26.10;48.10
36652;DHT22;53334;51.976;20.144;2023-12-20T13:06:12;26.00;47.80
36652;DHT22;53334;51.976;20.144;2023-12-20T13:08:45;26.00;47.70
36652;DHT22;53334;51.976;20.144;2023-12-20T13:11:19;26.10;47.70
36652;DHT22;53334;51.976;20.144;2023-12-20T13:13:53;26.10;47.70
36652;DHT22;53334;51.976;20.144;2023-12-20T13:16:26;26.10;47.60
36652;DHT22;53334;51.976;20.144;2023-12-20T13:18:59;26.00;47.40
36652;DHT22;53334;51.976;20.144;2023-12-20T13:21:33;26.10;47.40
36652;DHT22;53334;51.976;20.144;2023-12-20T13:24:06;26.00;47.30
36652;DHT22;53334;51.976;20.144;2023-12-20T13:26:41;26.10;47.30
36652;DHT22;53334;51.976;20.144;2023-12-20T13:29:14;26.00;47.10
36652;DHT22;53334;51.976;20.144;2023-12-20T13:31:47;26.10;47.20
36652;DHT22;53334;51.976;20.144;2023-12-20T13:34:21;26.10;47.10
36652;DHT22;53334;51.976;20.144;2023-12-20T13:36:54;26.10;47.10
36652;DHT22;53334;51.976;20.144;2023-12-20T13:39:28;26.10;47.00
36652;DHT22;53334;51.976;20.144;2023-12-20T13:42:05;26.10;47.00
36652;DHT22;53334;51.976;20.144;2023-12-20T13:44:38;26.10;46.90
36652;DHT22;53334;51.976;20.144;2023-12-20T13:47:11;26.00;46.90
36652;DHT22;53334;51.976;20.144;2023-12-20T13:49:44;26.10;46.90
36652;DHT22;53334;51.976;20.144;2023-12-20T13:52:18;26.10;46.90
36652;DHT22;53334;51.976;20.144;2023-12-20T13:54:51;26.10;46.90
36652;DHT22;53334;51.976;20.144;2023-12-20T13:57:26;26.00;46.70
36652;DHT22;53334;51.976;20.144;2023-12-20T14:00:21;26.10;46.80
36652;DHT22;53334;51.976;20.144;2023-12-20T14:02:54;26.10;46.80
36652;DHT22;53334;51.976;20.144;2023-12-20T14:05:28;26.10;46.80
36652;DHT22;53334;51.976;20.144;2023-12-20T14:08:02;26.10;46.70
36652;DHT22;53334;51.976;20.144;2023-12-20T14:10:35;26.10;46.80
36652;DHT22;53334;51.976;20.144;2023-12-20T14:13:10;26.10;46.90
36652;DHT22;53334;51.976;20.144;2023-12-20T14:15:43;26.10;46.90
36652;DHT22;53334;51.976;20.144;2023-12-20T14:18:18;26.10;46.90
36652;DHT22;53334;51.976;20.144;2023-12-20T14:20:52;26.10;46.90
36652;DHT22;53334;51.976;20.144;2023-12-20T14:23:25;26.10;46.90
36652;DHT22;53334;51.976;20.144;2023-12-20T14:25:59;26.10;46.90
36652;DHT22;53334;51.976;20.144;2023-12-20T14:28:33;26.10;46.90
36652;DHT22;53334;51.976;20.144;2023-12-20T14:31:07;26.10;46.90
36652;DHT22;53334;51.976;20.144;2023-12-20T14:33:40;26.10;46.90
36652;DHT22;53334;51.976;20.144;2023-12-20T14:36:14;26.10;46.90
36652;DHT22;53334;51.976;20.144;2023-12-20T14:38:49;26.10;46.80
36652;DHT22;53334;51.976;20.144;2023-12-20T14:41:22;26.10;46.90
36652;DHT22;53334;51.976;20.144;2023-12-20T14:43:57;26.10;47.10
36652;DHT22;53334;51.976;20.144;2023-12-20T14:46:32;26.10;47.40
36652;DHT22;53334;51.976;20.144;2023-12-20T14:49:05;26.10;47.40
36652;DHT22;53334;51.976;20.144;2023-12-20T14:51:39;26.10;47.70
36652;DHT22;53334;51.976;20.144;2023-12-20T14:54:12;26.10;47.80
36652;DHT22;53334;51.976;20.144;2023-12-20T14:56:45;26.20;48.00
36652;DHT22;53334;51.976;20.144;2023-12-20T14:59:20;26.20;48.00
36652;DHT22;53334;51.976;20.144;2023-12-20T15:01:53;26.10;48.00
36652;DHT22;53334;51.976;20.144;2023-12-20T15:04:27;26.20;48.10
36652;DHT22;53334;51.976;20.144;2023-12-20T15:07:01;26.10;48.00
36652;DHT22;53334;51.976;20.144;2023-12-20T15:09:36;26.20;48.20
36652;DHT22;53334;51.976;20.144;2023-12-20T15:12:10;26.20;48.20
36652;DHT22;53334;51.976;20.144;2023-12-20T15:14:44;26.20;48.20
36652;DHT22;53334;51.976;20.144;2023-12-20T15:17:17;26.20;48.20
36652;DHT22;53334;51.976;20.144;2023-12-20T15:19:50;26.20;48.10
36652;DHT22;53334;51.976;20.144;2023-12-20T15:22:24;26.20;48.10
36652;DHT22;53334;51.976;20.144;2023-12-20T15:24:58;26.20;48.10
36652;DHT22;53334;51.976;20.144;2023-12-20T15:27:33;26.20;48.10
36652;DHT22;53334;51.976;20.144;2023-12-20T15:30:10;26.20;48.10
36652;DHT22;53334;51.976;20.144;2023-12-20T15:32:43;26.20;48.10
36652;DHT22;53334;51.976;20.144;2023-12-20T15:35:16;26.20;47.90
36652;DHT22;53334;51.976;20.144;2023-12-20T15:37:50;26.20;47.90
36652;DHT22;53334;51.976;20.144;2023-12-20T15:40:23;26.20;47.90
36652;DHT22;53334;51.976;20.144;2023-12-20T15:42:57;26.20;47.90
36652;DHT22;53334;51.976;20.144;2023-12-20T15:45:33;26.10;47.80
36652;DHT22;53334;51.976;20.144;2023-12-20T15:48:06;26.20;47.80
36652;DHT22;53334;51.976;20.144;2023-12-20T15:50:41;26.20;47.70
36652;DHT22;53334;51.976;20.144;2023-12-20T15:53:14;26.20;47.70
36652;DHT22;53334;51.976;20.144;2023-12-20T15:55:47;26.20;47.70
36652;DHT22;53334;51.976;20.144;2023-12-20T15:58:20;26.20;47.50